sensor_id;sensor_type;location;lat;lon;timestamp;P1;durP1;ratioP1;P2;durP2;ratioP2
55465;SDS011;41329;41.594;23.810;2023-02-24T00:01:52;26.47;;;22.03;;
55465;SDS011;41329;41.594;23.810;2023-02-24T00:04:25;21.00;;;18.83;;
55465;SDS011;41329;41.594;23.810;2023-02-24T00:09:21;17.30;;;16.00;;
55465;SDS011;41329;41.594;23.810;2023-02-24T00:11:54;18.07;;;16.40;;
55465;SDS011;41329;41.594;23.810;2023-02-24T00:14:23;18.00;;;16.57;;
55465;SDS011;41329;41.594;23.810;2023-02-24T00:16:50;17.97;;;16.40;;
55465;SDS011;41329;41.594;23.810;2023-02-24T00:19:18;16.80;;;15.50;;
55465;SDS011;41329;41.594;23.810;2023-02-24T00:21:46;17.20;;;16.00;;
55465;SDS011;41329;41.594;23.810;2023-02-24T00:24:12;16.57;;;15.30;;
55465;SDS011;41329;41.594;23.810;2023-02-24T00:26:38;15.80;;;14.70;;
55465;SDS011;41329;41.594;23.810;2023-02-24T00:29:05;16.37;;;15.17;;
55465;SDS011;41329;41.594;23.810;2023-02-24T00:31:33;17.90;;;16.00;;
55465;SDS011;41329;41.594;23.810;2023-02-24T00:34:03;17.42;;;15.80;;
55465;SDS011;41329;41.594;23.810;2023-02-24T00:36:28;16.67;;;15.10;;
55465;SDS011;41329;41.594;23.810;2023-02-24T00:39:02;15.70;;;14.30;;
55465;SDS011;41329;41.594;23.810;2023-02-24T00:41:33;15.87;;;14.47;;
55465;SDS011;41329;41.594;23.810;2023-02-24T00:44:02;16.37;;;14.90;;
55465;SDS011;41329;41.594;23.810;2023-02-24T00:46:30;17.60;;;15.83;;
55465;SDS011;41329;41.594;23.810;2023-02-24T00:49:22;15.67;;;14.50;;
55465;SDS011;41329;41.594;23.810;2023-02-24T00:51:48;17.60;;;15.80;;
55465;SDS011;41329;41.594;23.810;2023-02-24T00:54:18;17.55;;;16.17;;
55465;SDS011;41329;41.594;23.810;2023-02-24T00:56:45;16.53;;;15.27;;
55465;SDS011;41329;41.594;23.810;2023-02-24T00:59:13;16.53;;;15.23;;
55465;SDS011;41329;41.594;23.810;2023-02-24T01:01:40;17.10;;;15.90;;
55465;SDS011;41329;41.594;23.810;2023-02-24T01:04:06;16.63;;;15.37;;
55465;SDS011;41329;41.594;23.810;2023-02-24T01:06:40;18.50;;;17.00;;
55465;SDS011;41329;41.594;23.810;2023-02-24T01:09:10;15.70;;;14.67;;
55465;SDS011;41329;41.594;23.810;2023-02-24T01:11:37;16.17;;;14.93;;
55465;SDS011;41329;41.594;23.810;2023-02-24T01:14:22;15.77;;;14.53;;
55465;SDS011;41329;41.594;23.810;2023-02-24T01:16:50;17.30;;;15.63;;
55465;SDS011;41329;41.594;23.810;2023-02-24T01:19:17;16.80;;;15.60;;
55465;SDS011;41329;41.594;23.810;2023-02-24T01:21:47;16.13;;;14.90;;
55465;SDS011;41329;41.594;23.810;2023-02-24T01:24:23;15.40;;;14.30;;
55465;SDS011;41329;41.594;23.810;2023-02-24T01:26:49;16.60;;;15.38;;
55465;SDS011;41329;41.594;23.810;2023-02-24T01:29:15;17.83;;;16.10;;
55465;SDS011;41329;41.594;23.810;2023-02-24T01:31:40;16.60;;;15.07;;
55465;SDS011;41329;41.594;23.810;2023-02-24T01:34:10;15.20;;;14.10;;
55465;SDS011;41329;41.594;23.810;2023-02-24T01:36:38;16.10;;;14.90;;
55465;SDS011;41329;41.594;23.810;2023-02-24T01:39:09;17.93;;;16.37;;
55465;SDS011;41329;41.594;23.810;2023-02-24T01:41:37;16.87;;;15.57;;
55465;SDS011;41329;41.594;23.810;2023-02-24T01:44:06;17.00;;;15.70;;
55465;SDS011;41329;41.594;23.810;2023-02-24T01:46:53;16.93;;;15.20;;
55465;SDS011;41329;41.594;23.810;2023-02-24T01:49:21;16.40;;;15.13;;
55465;SDS011;41329;41.594;23.810;2023-02-24T01:55:00;17.33;;;15.77;;
55465;SDS011;41329;41.594;23.810;2023-02-24T01:57:32;17.57;;;15.57;;
55465;SDS011;41329;41.594;23.810;2023-02-24T01:59:59;19.00;;;15.43;;
55465;SDS011;41329;41.594;23.810;2023-02-24T02:02:49;17.50;;;16.20;;
55465;SDS011;41329;41.594;23.810;2023-02-24T02:05:16;16.67;;;15.57;;
55465;SDS011;41329;41.594;23.810;2023-02-24T02:07:42;17.57;;;15.83;;
55465;SDS011;41329;41.594;23.810;2023-02-24T02:10:09;17.40;;;16.13;;
55465;SDS011;41329;41.594;23.810;2023-02-24T02:12:36;17.03;;;15.73;;
55465;SDS011;41329;41.594;23.810;2023-02-24T02:15:08;17.33;;;16.13;;
55465;SDS011;41329;41.594;23.810;2023-02-24T02:31:57;20.53;;;17.90;;
55465;SDS011;41329;41.594;23.810;2023-02-24T02:40:30;20.50;;;18.43;;
55465;SDS011;41329;41.594;23.810;2023-02-24T02:43:19;21.63;;;19.50;;
55465;SDS011;41329;41.594;23.810;2023-02-24T02:48:36;25.67;;;21.50;;
55465;SDS011;41329;41.594;23.810;2023-02-24T02:51:08;63.33;;;42.97;;
55465;SDS011;41329;41.594;23.810;2023-02-24T02:53:42;70.67;;;43.47;;
55465;SDS011;41329;41.594;23.810;2023-02-24T02:56:24;38.83;;;25.30;;
55465;SDS011;41329;41.594;23.810;2023-02-24T02:58:56;26.93;;;20.20;;
55465;SDS011;41329;41.594;23.810;2023-02-24T03:01:28;44.20;;;26.00;;
55465;SDS011;41329;41.594;23.810;2023-02-24T03:03:58;24.90;;;21.30;;
55465;SDS011;41329;41.594;23.810;2023-02-24T03:07:02;24.43;;;19.60;;
55465;SDS011;41329;41.594;23.810;2023-02-24T03:09:24;22.23;;;19.73;;
55465;SDS011;41329;41.594;23.810;2023-02-24T03:11:54;23.67;;;21.17;;
55465;SDS011;41329;41.594;23.810;2023-02-24T03:14:33;21.42;;;19.50;;
55465;SDS011;41329;41.594;23.810;2023-02-24T03:17:07;21.83;;;19.60;;
55465;SDS011;41329;41.594;23.810;2023-02-24T03:19:38;21.60;;;19.40;;
55465;SDS011;41329;41.594;23.810;2023-02-24T03:22:08;22.33;;;19.70;;
55465;SDS011;41329;41.594;23.810;2023-02-24T03:24:42;22.47;;;18.70;;
55465;SDS011;41329;41.594;23.810;2023-02-24T03:27:10;22.50;;;19.52;;
55465;SDS011;41329;41.594;23.810;2023-02-24T03:29:51;21.17;;;19.23;;
55465;SDS011;41329;41.594;23.810;2023-02-24T03:32:22;20.17;;;18.43;;
55465;SDS011;41329;41.594;23.810;2023-02-24T03:35:01;21.00;;;18.93;;
55465;SDS011;41329;41.594;23.810;2023-02-24T03:37:35;19.53;;;17.80;;
55465;SDS011;41329;41.594;23.810;2023-02-24T03:40:02;19.93;;;17.93;;
55465;SDS011;41329;41.594;23.810;2023-02-24T03:42:48;21.45;;;19.38;;
55465;SDS011;41329;41.594;23.810;2023-02-24T03:45:17;22.07;;;18.87;;
55465;SDS011;41329;41.594;23.810;2023-02-24T03:47:46;21.27;;;19.30;;
55465;SDS011;41329;41.594;23.810;2023-02-24T03:50:17;19.13;;;17.70;;
55465;SDS011;41329;41.594;23.810;2023-02-24T03:55:36;19.67;;;17.93;;
55465;SDS011;41329;41.594;23.810;2023-02-24T03:58:27;20.73;;;18.70;;
55465;SDS011;41329;41.594;23.810;2023-02-24T04:11:20;20.23;;;18.50;;
55465;SDS011;41329;41.594;23.810;2023-02-24T04:13:56;20.87;;;19.17;;
55465;SDS011;41329;41.594;23.810;2023-02-24T04:16:52;20.33;;;18.43;;
55465;SDS011;41329;41.594;23.810;2023-02-24T04:19:39;18.23;;;17.03;;
55465;SDS011;41329;41.594;23.810;2023-02-24T04:22:07;23.33;;;20.40;;
55465;SDS011;41329;41.594;23.810;2023-02-24T04:24:36;80.93;;;39.65;;
55465;SDS011;41329;41.594;23.810;2023-02-24T04:27:05;105.77;;;48.40;;
55465;SDS011;41329;41.594;23.810;2023-02-24T04:29:37;92.55;;;41.65;;
55465;SDS011;41329;41.594;23.810;2023-02-24T04:32:11;43.03;;;28.93;;
55465;SDS011;41329;41.594;23.810;2023-02-24T04:34:40;57.00;;;32.77;;
55465;SDS011;41329;41.594;23.810;2023-02-24T04:37:06;38.03;;;29.40;;
55465;SDS011;41329;41.594;23.810;2023-02-24T04:39:32;39.43;;;28.10;;
55465;SDS011;41329;41.594;23.810;2023-02-24T04:42:02;28.05;;;24.40;;
55465;SDS011;41329;41.594;23.810;2023-02-24T04:44:29;23.90;;;21.30;;
55465;SDS011;41329;41.594;23.810;2023-02-24T04:46:56;24.57;;;22.07;;
55465;SDS011;41329;41.594;23.810;2023-02-24T04:49:23;23.67;;;21.17;;
55465;SDS011;41329;41.594;23.810;2023-02-24T04:51:49;75.07;;;43.93;;
55465;SDS011;41329;41.594;23.810;2023-02-24T04:54:16;57.60;;;35.50;;
55465;SDS011;41329;41.594;23.810;2023-02-24T04:56:43;39.33;;;30.80;;
55465;SDS011;41329;41.594;23.810;2023-02-24T04:59:12;39.40;;;28.43;;
55465;SDS011;41329;41.594;23.810;2023-02-24T05:01:39;42.33;;;27.13;;
55465;SDS011;41329;41.594;23.810;2023-02-24T05:04:09;31.15;;;26.80;;
55465;SDS011;41329;41.594;23.810;2023-02-24T05:06:36;45.20;;;32.77;;
55465;SDS011;41329;41.594;23.810;2023-02-24T05:09:07;53.47;;;38.07;;
55465;SDS011;41329;41.594;23.810;2023-02-24T05:14:11;41.63;;;30.27;;
55465;SDS011;41329;41.594;23.810;2023-02-24T05:16:41;42.30;;;33.23;;
55465;SDS011;41329;41.594;23.810;2023-02-24T05:19:10;46.22;;;33.80;;
55465;SDS011;41329;41.594;23.810;2023-02-24T05:21:56;47.67;;;34.30;;
55465;SDS011;41329;41.594;23.810;2023-02-24T05:24:22;114.50;;;61.60;;
55465;SDS011;41329;41.594;23.810;2023-02-24T05:26:53;104.83;;;55.57;;
55465;SDS011;41329;41.594;23.810;2023-02-24T05:29:22;108.63;;;63.10;;
55465;SDS011;41329;41.594;23.810;2023-02-24T05:31:50;92.93;;;55.50;;
55465;SDS011;41329;41.594;23.810;2023-02-24T05:34:18;66.60;;;45.17;;
55465;SDS011;41329;41.594;23.810;2023-02-24T05:36:45;64.23;;;42.37;;
55465;SDS011;41329;41.594;23.810;2023-02-24T05:39:13;55.70;;;38.50;;
55465;SDS011;41329;41.594;23.810;2023-02-24T05:41:44;58.27;;;40.57;;
55465;SDS011;41329;41.594;23.810;2023-02-24T05:44:16;52.93;;;39.30;;
55465;SDS011;41329;41.594;23.810;2023-02-24T05:46:47;48.03;;;35.03;;
55465;SDS011;41329;41.594;23.810;2023-02-24T05:51:50;73.77;;;47.97;;
55465;SDS011;41329;41.594;23.810;2023-02-24T05:54:25;71.27;;;46.67;;
55465;SDS011;41329;41.594;23.810;2023-02-24T05:56:54;86.23;;;50.23;;
55465;SDS011;41329;41.594;23.810;2023-02-24T05:59:24;84.87;;;50.90;;
55465;SDS011;41329;41.594;23.810;2023-02-24T06:01:56;82.30;;;47.73;;
55465;SDS011;41329;41.594;23.810;2023-02-24T06:04:31;79.73;;;50.53;;
55465;SDS011;41329;41.594;23.810;2023-02-24T06:07:13;179.50;;;98.33;;
55465;SDS011;41329;41.594;23.810;2023-02-24T06:09:44;112.05;;;61.80;;
55465;SDS011;41329;41.594;23.810;2023-02-24T06:12:10;138.33;;;66.63;;
55465;SDS011;41329;41.594;23.810;2023-02-24T06:14:38;166.53;;;73.40;;
55465;SDS011;41329;41.594;23.810;2023-02-24T06:17:04;63.03;;;40.50;;
55465;SDS011;41329;41.594;23.810;2023-02-24T06:19:30;44.63;;;35.57;;
55465;SDS011;41329;41.594;23.810;2023-02-24T06:21:59;65.53;;;36.50;;
55465;SDS011;41329;41.594;23.810;2023-02-24T06:24:26;66.90;;;48.93;;
55465;SDS011;41329;41.594;23.810;2023-02-24T06:26:54;56.13;;;36.17;;
55465;SDS011;41329;41.594;23.810;2023-02-24T06:29:27;57.77;;;36.63;;
55465;SDS011;41329;41.594;23.810;2023-02-24T06:31:54;46.57;;;32.03;;
55465;SDS011;41329;41.594;23.810;2023-02-24T06:34:24;36.90;;;28.17;;
55465;SDS011;41329;41.594;23.810;2023-02-24T06:36:51;28.33;;;23.80;;
55465;SDS011;41329;41.594;23.810;2023-02-24T06:39:17;27.07;;;24.23;;
55465;SDS011;41329;41.594;23.810;2023-02-24T06:41:43;25.73;;;23.13;;
55465;SDS011;41329;41.594;23.810;2023-02-24T06:44:09;36.00;;;26.43;;
55465;SDS011;41329;41.594;23.810;2023-02-24T06:46:34;42.37;;;31.13;;
55465;SDS011;41329;41.594;23.810;2023-02-24T06:49:00;50.60;;;36.03;;
55465;SDS011;41329;41.594;23.810;2023-02-24T06:51:26;38.03;;;30.73;;
55465;SDS011;41329;41.594;23.810;2023-02-24T06:53:54;36.27;;;27.80;;
55465;SDS011;41329;41.594;23.810;2023-02-24T06:56:21;25.97;;;22.87;;
55465;SDS011;41329;41.594;23.810;2023-02-24T06:58:50;29.30;;;24.97;;
55465;SDS011;41329;41.594;23.810;2023-02-24T07:01:18;29.13;;;24.13;;
55465;SDS011;41329;41.594;23.810;2023-02-24T07:03:49;24.33;;;22.03;;
55465;SDS011;41329;41.594;23.810;2023-02-24T07:06:25;23.10;;;20.83;;
55465;SDS011;41329;41.594;23.810;2023-02-24T07:08:52;27.73;;;23.57;;
55465;SDS011;41329;41.594;23.810;2023-02-24T07:11:18;27.97;;;24.10;;
55465;SDS011;41329;41.594;23.810;2023-02-24T07:13:45;28.80;;;25.77;;
55465;SDS011;41329;41.594;23.810;2023-02-24T07:16:14;33.53;;;25.67;;
55465;SDS011;41329;41.594;23.810;2023-02-24T07:18:41;27.07;;;24.20;;
55465;SDS011;41329;41.594;23.810;2023-02-24T07:21:09;25.47;;;23.07;;
55465;SDS011;41329;41.594;23.810;2023-02-24T07:23:40;28.77;;;25.63;;
55465;SDS011;41329;41.594;23.810;2023-02-24T07:26:13;28.00;;;24.57;;
55465;SDS011;41329;41.594;23.810;2023-02-24T07:28:41;27.63;;;24.63;;
55465;SDS011;41329;41.594;23.810;2023-02-24T07:31:09;27.97;;;25.20;;
55465;SDS011;41329;41.594;23.810;2023-02-24T07:33:36;25.27;;;22.83;;
55465;SDS011;41329;41.594;23.810;2023-02-24T07:36:06;25.40;;;23.10;;
55465;SDS011;41329;41.594;23.810;2023-02-24T07:38:35;27.52;;;24.58;;
55465;SDS011;41329;41.594;23.810;2023-02-24T07:41:05;30.97;;;27.27;;
55465;SDS011;41329;41.594;23.810;2023-02-24T07:43:34;30.60;;;26.67;;
55465;SDS011;41329;41.594;23.810;2023-02-24T07:46:11;27.97;;;24.97;;
55465;SDS011;41329;41.594;23.810;2023-02-24T07:48:39;41.03;;;28.73;;
55465;SDS011;41329;41.594;23.810;2023-02-24T07:51:09;30.53;;;27.50;;
55465;SDS011;41329;41.594;23.810;2023-02-24T07:53:39;30.83;;;26.45;;
55465;SDS011;41329;41.594;23.810;2023-02-24T07:56:08;39.13;;;28.17;;
55465;SDS011;41329;41.594;23.810;2023-02-24T07:58:40;28.03;;;24.83;;
55465;SDS011;41329;41.594;23.810;2023-02-24T08:01:11;37.87;;;28.60;;
55465;SDS011;41329;41.594;23.810;2023-02-24T08:03:57;34.23;;;27.37;;
55465;SDS011;41329;41.594;23.810;2023-02-24T08:06:29;32.00;;;27.57;;
55465;SDS011;41329;41.594;23.810;2023-02-24T08:09:06;28.47;;;25.43;;
55465;SDS011;41329;41.594;23.810;2023-02-24T08:11:45;35.70;;;27.37;;
55465;SDS011;41329;41.594;23.810;2023-02-24T08:14:16;44.77;;;28.33;;
55465;SDS011;41329;41.594;23.810;2023-02-24T08:16:43;33.40;;;27.53;;
55465;SDS011;41329;41.594;23.810;2023-02-24T08:19:12;44.27;;;34.50;;
55465;SDS011;41329;41.594;23.810;2023-02-24T08:21:44;38.90;;;30.93;;
55465;SDS011;41329;41.594;23.810;2023-02-24T08:24:23;42.88;;;31.45;;
55465;SDS011;41329;41.594;23.810;2023-02-24T08:26:54;39.87;;;29.40;;
55465;SDS011;41329;41.594;23.810;2023-02-24T08:29:36;31.20;;;27.83;;
55465;SDS011;41329;41.594;23.810;2023-02-24T08:35:14;27.43;;;24.60;;
55465;SDS011;41329;41.594;23.810;2023-02-24T08:37:42;27.53;;;24.83;;
55465;SDS011;41329;41.594;23.810;2023-02-24T08:43:05;28.77;;;24.83;;
55465;SDS011;41329;41.594;23.810;2023-02-24T08:48:52;27.02;;;24.33;;
55465;SDS011;41329;41.594;23.810;2023-02-24T08:51:32;27.23;;;24.13;;
55465;SDS011;41329;41.594;23.810;2023-02-24T08:54:00;25.47;;;22.90;;
55465;SDS011;41329;41.594;23.810;2023-02-24T08:56:35;25.60;;;22.97;;
55465;SDS011;41329;41.594;23.810;2023-02-24T08:59:07;23.50;;;20.73;;
55465;SDS011;41329;41.594;23.810;2023-02-24T09:01:53;23.33;;;21.27;;
55465;SDS011;41329;41.594;23.810;2023-02-24T09:04:38;30.10;;;22.43;;
55465;SDS011;41329;41.594;23.810;2023-02-24T09:07:04;26.73;;;22.83;;
55465;SDS011;41329;41.594;23.810;2023-02-24T09:09:35;24.77;;;22.07;;
55465;SDS011;41329;41.594;23.810;2023-02-24T09:12:06;27.77;;;24.03;;
55465;SDS011;41329;41.594;23.810;2023-02-24T09:14:32;25.50;;;22.87;;
55465;SDS011;41329;41.594;23.810;2023-02-24T09:17:03;27.85;;;24.65;;
55465;SDS011;41329;41.594;23.810;2023-02-24T09:19:35;25.67;;;23.13;;
55465;SDS011;41329;41.594;23.810;2023-02-24T09:22:16;38.87;;;26.83;;
55465;SDS011;41329;41.594;23.810;2023-02-24T09:25:08;27.30;;;24.73;;
55465;SDS011;41329;41.594;23.810;2023-02-24T09:27:43;31.43;;;26.13;;
55465;SDS011;41329;41.594;23.810;2023-02-24T09:30:16;28.40;;;25.43;;
55465;SDS011;41329;41.594;23.810;2023-02-24T09:33:04;32.43;;;25.50;;
55465;SDS011;41329;41.594;23.810;2023-02-24T09:35:30;33.53;;;25.63;;
55465;SDS011;41329;41.594;23.810;2023-02-24T09:38:01;42.97;;;30.35;;
55465;SDS011;41329;41.594;23.810;2023-02-24T09:40:31;36.13;;;28.33;;
55465;SDS011;41329;41.594;23.810;2023-02-24T09:43:13;31.60;;;28.17;;
55465;SDS011;41329;41.594;23.810;2023-02-24T09:46:03;44.50;;;32.40;;
55465;SDS011;41329;41.594;23.810;2023-02-24T09:48:46;38.33;;;30.43;;
55465;SDS011;41329;41.594;23.810;2023-02-24T09:51:20;35.38;;;28.65;;
55465;SDS011;41329;41.594;23.810;2023-02-24T09:53:47;38.23;;;29.27;;
55465;SDS011;41329;41.594;23.810;2023-02-24T10:01:46;26.53;;;23.90;;
55465;SDS011;41329;41.594;23.810;2023-02-24T10:07:02;34.53;;;27.43;;
55465;SDS011;41329;41.594;23.810;2023-02-24T10:09:34;28.40;;;25.50;;
55465;SDS011;41329;41.594;23.810;2023-02-24T10:17:40;50.92;;;33.67;;
55465;SDS011;41329;41.594;23.810;2023-02-24T10:20:21;29.63;;;26.47;;
55465;SDS011;41329;41.594;23.810;2023-02-24T10:26:01;28.03;;;22.83;;
55465;SDS011;41329;41.594;23.810;2023-02-24T10:28:49;32.33;;;25.50;;
55465;SDS011;41329;41.594;23.810;2023-02-24T10:31:26;46.60;;;30.70;;
55465;SDS011;41329;41.594;23.810;2023-02-24T10:34:09;50.43;;;32.13;;
55465;SDS011;41329;41.594;23.810;2023-02-24T10:36:49;34.97;;;26.27;;
55465;SDS011;41329;41.594;23.810;2023-02-24T10:39:16;33.43;;;26.20;;
55465;SDS011;41329;41.594;23.810;2023-02-24T10:41:51;41.17;;;29.77;;
55465;SDS011;41329;41.594;23.810;2023-02-24T10:44:28;29.60;;;26.37;;
55465;SDS011;41329;41.594;23.810;2023-02-24T10:47:01;50.10;;;33.87;;
55465;SDS011;41329;41.594;23.810;2023-02-24T10:49:39;29.73;;;25.97;;
55465;SDS011;41329;41.594;23.810;2023-02-24T10:52:30;24.67;;;22.40;;
55465;SDS011;41329;41.594;23.810;2023-02-24T10:55:29;25.27;;;21.80;;
55465;SDS011;41329;41.594;23.810;2023-02-24T10:58:13;22.83;;;21.03;;
55465;SDS011;41329;41.594;23.810;2023-02-24T11:01:15;19.70;;;17.90;;
55465;SDS011;41329;41.594;23.810;2023-02-24T11:03:54;19.40;;;17.90;;
55465;SDS011;41329;41.594;23.810;2023-02-24T11:06:50;24.53;;;21.53;;
55465;SDS011;41329;41.594;23.810;2023-02-24T11:09:36;23.50;;;21.20;;
55465;SDS011;41329;41.594;23.810;2023-02-24T11:12:30;20.00;;;18.50;;
55465;SDS011;41329;41.594;23.810;2023-02-24T11:15:16;20.30;;;18.63;;
55465;SDS011;41329;41.594;23.810;2023-02-24T11:18:03;20.00;;;18.35;;
55465;SDS011;41329;41.594;23.810;2023-02-24T11:20:34;19.25;;;17.55;;
55465;SDS011;41329;41.594;23.810;2023-02-24T11:23:05;21.07;;;19.20;;
55465;SDS011;41329;41.594;23.810;2023-02-24T11:36:46;22.83;;;20.73;;
55465;SDS011;41329;41.594;23.810;2023-02-24T11:42:14;12.80;;;12.07;;
55465;SDS011;41329;41.594;23.810;2023-02-24T11:47:38;14.10;;;13.00;;
55465;SDS011;41329;41.594;23.810;2023-02-24T11:52:52;11.73;;;11.02;;
55465;SDS011;41329;41.594;23.810;2023-02-24T11:58:23;13.15;;;12.00;;
55465;SDS011;41329;41.594;23.810;2023-02-24T12:01:19;12.95;;;12.05;;
55465;SDS011;41329;41.594;23.810;2023-02-24T12:03:51;11.43;;;10.70;;
55465;SDS011;41329;41.594;23.810;2023-02-24T12:06:24;11.85;;;11.02;;
55465;SDS011;41329;41.594;23.810;2023-02-24T12:09:01;14.48;;;13.43;;
55465;SDS011;41329;41.594;23.810;2023-02-24T12:17:43;13.98;;;13.18;;
55465;SDS011;41329;41.594;23.810;2023-02-24T12:22:32;14.80;;;13.90;;
55465;SDS011;41329;41.594;23.810;2023-02-24T12:25:28;12.63;;;11.93;;
55465;SDS011;41329;41.594;23.810;2023-02-24T12:31:22;14.93;;;13.48;;
55465;SDS011;41329;41.594;23.810;2023-02-24T12:34:04;12.55;;;11.75;;
55465;SDS011;41329;41.594;23.810;2023-02-24T12:36:40;14.07;;;12.90;;
55465;SDS011;41329;41.594;23.810;2023-02-24T12:39:47;12.50;;;11.80;;
55465;SDS011;41329;41.594;23.810;2023-02-24T12:45:16;10.52;;;9.82;;
55465;SDS011;41329;41.594;23.810;2023-02-24T12:59:01;9.35;;;8.63;;
55465;SDS011;41329;41.594;23.810;2023-02-24T13:12:42;8.98;;;8.30;;
55465;SDS011;41329;41.594;23.810;2023-02-24T13:15:47;7.93;;;7.30;;
55465;SDS011;41329;41.594;23.810;2023-02-24T13:18:21;9.50;;;6.40;;
55465;SDS011;41329;41.594;23.810;2023-02-24T13:20:47;7.80;;;7.30;;
55465;SDS011;41329;41.594;23.810;2023-02-24T13:23:18;7.25;;;6.30;;
55465;SDS011;41329;41.594;23.810;2023-02-24T13:25:52;7.32;;;6.82;;
55465;SDS011;41329;41.594;23.810;2023-02-24T13:28:23;7.13;;;6.43;;
55465;SDS011;41329;41.594;23.810;2023-02-24T13:33:43;8.00;;;6.68;;
55465;SDS011;41329;41.594;23.810;2023-02-24T13:36:16;10.57;;;6.22;;
55465;SDS011;41329;41.594;23.810;2023-02-24T13:38:48;8.15;;;7.55;;
55465;SDS011;41329;41.594;23.810;2023-02-24T13:41:19;6.72;;;6.05;;
55465;SDS011;41329;41.594;23.810;2023-02-24T13:43:55;12.73;;;6.70;;
55465;SDS011;41329;41.594;23.810;2023-02-24T13:46:24;7.38;;;6.88;;
55465;SDS011;41329;41.594;23.810;2023-02-24T13:51:59;7.60;;;6.97;;
55465;SDS011;41329;41.594;23.810;2023-02-24T13:54:37;7.95;;;7.25;;
55465;SDS011;41329;41.594;23.810;2023-02-24T14:02:45;8.07;;;7.28;;
55465;SDS011;41329;41.594;23.810;2023-02-24T14:05:32;7.30;;;6.43;;
55465;SDS011;41329;41.594;23.810;2023-02-24T14:07:59;7.35;;;6.68;;
55465;SDS011;41329;41.594;23.810;2023-02-24T14:10:27;8.90;;;6.57;;
55465;SDS011;41329;41.594;23.810;2023-02-24T14:13:16;7.13;;;6.63;;
55465;SDS011;41329;41.594;23.810;2023-02-24T14:15:42;6.97;;;6.38;;
55465;SDS011;41329;41.594;23.810;2023-02-24T14:18:17;8.20;;;7.40;;
55465;SDS011;41329;41.594;23.810;2023-02-24T14:20:45;8.20;;;7.03;;
55465;SDS011;41329;41.594;23.810;2023-02-24T14:23:23;8.02;;;7.22;;
55465;SDS011;41329;41.594;23.810;2023-02-24T14:28:32;8.55;;;6.55;;
55465;SDS011;41329;41.594;23.810;2023-02-24T14:31:11;10.77;;;8.13;;
55465;SDS011;41329;41.594;23.810;2023-02-24T14:33:39;11.20;;;6.95;;
55465;SDS011;41329;41.594;23.810;2023-02-24T14:36:15;8.35;;;6.10;;
55465;SDS011;41329;41.594;23.810;2023-02-24T14:38:43;11.60;;;9.68;;
55465;SDS011;41329;41.594;23.810;2023-02-24T14:41:19;8.52;;;7.13;;
55465;SDS011;41329;41.594;23.810;2023-02-24T14:43:49;8.13;;;6.85;;
55465;SDS011;41329;41.594;23.810;2023-02-24T14:46:16;27.30;;;20.25;;
55465;SDS011;41329;41.594;23.810;2023-02-24T14:48:42;68.20;;;38.20;;
55465;SDS011;41329;41.594;23.810;2023-02-24T14:51:09;11.05;;;10.00;;
55465;SDS011;41329;41.594;23.810;2023-02-24T14:53:42;24.83;;;20.55;;
55465;SDS011;41329;41.594;23.810;2023-02-24T14:56:12;18.90;;;16.02;;
55465;SDS011;41329;41.594;23.810;2023-02-24T15:01:17;16.35;;;9.00;;
55465;SDS011;41329;41.594;23.810;2023-02-24T15:03:55;47.35;;;26.70;;
55465;SDS011;41329;41.594;23.810;2023-02-24T15:06:24;15.27;;;9.57;;
55465;SDS011;41329;41.594;23.810;2023-02-24T15:08:57;14.00;;;8.10;;
55465;SDS011;41329;41.594;23.810;2023-02-24T15:11:27;10.40;;;7.63;;
55465;SDS011;41329;41.594;23.810;2023-02-24T15:13:55;14.45;;;9.00;;
55465;SDS011;41329;41.594;23.810;2023-02-24T15:16:24;30.02;;;15.25;;
55465;SDS011;41329;41.594;23.810;2023-02-24T15:19:00;19.45;;;12.82;;
55465;SDS011;41329;41.594;23.810;2023-02-24T15:21:27;15.48;;;12.63;;
55465;SDS011;41329;41.594;23.810;2023-02-24T15:23:59;23.75;;;17.60;;
55465;SDS011;41329;41.594;23.810;2023-02-24T15:26:31;20.48;;;17.70;;
55465;SDS011;41329;41.594;23.810;2023-02-24T15:28:59;20.73;;;15.63;;
55465;SDS011;41329;41.594;23.810;2023-02-24T15:31:26;19.40;;;17.63;;
55465;SDS011;41329;41.594;23.810;2023-02-24T15:33:59;16.50;;;15.00;;
55465;SDS011;41329;41.594;23.810;2023-02-24T15:36:30;20.50;;;17.48;;
55465;SDS011;41329;41.594;23.810;2023-02-24T15:39:08;19.77;;;16.98;;
55465;SDS011;41329;41.594;23.810;2023-02-24T15:41:45;20.05;;;16.48;;
55465;SDS011;41329;41.594;23.810;2023-02-24T15:46:57;21.27;;;16.80;;
55465;SDS011;41329;41.594;23.810;2023-02-24T15:49:24;15.55;;;13.73;;
55465;SDS011;41329;41.594;23.810;2023-02-24T15:51:53;11.75;;;10.40;;
55465;SDS011;41329;41.594;23.810;2023-02-24T15:54:27;12.75;;;10.13;;
55465;SDS011;41329;41.594;23.810;2023-02-24T15:56:58;12.25;;;10.13;;
55465;SDS011;41329;41.594;23.810;2023-02-24T15:59:25;11.55;;;10.20;;
55465;SDS011;41329;41.594;23.810;2023-02-24T16:01:51;13.25;;;9.95;;
55465;SDS011;41329;41.594;23.810;2023-02-24T16:04:17;11.23;;;9.15;;
55465;SDS011;41329;41.594;23.810;2023-02-24T16:06:44;10.55;;;9.63;;
55465;SDS011;41329;41.594;23.810;2023-02-24T16:09:18;8.98;;;8.20;;
55465;SDS011;41329;41.594;23.810;2023-02-24T16:11:56;10.73;;;8.52;;
55465;SDS011;41329;41.594;23.810;2023-02-24T16:14:22;11.00;;;9.15;;
55465;SDS011;41329;41.594;23.810;2023-02-24T16:16:47;11.35;;;8.20;;
55465;SDS011;41329;41.594;23.810;2023-02-24T16:19:13;8.27;;;7.68;;
55465;SDS011;41329;41.594;23.810;2023-02-24T16:21:39;8.32;;;7.63;;
55465;SDS011;41329;41.594;23.810;2023-02-24T16:24:05;8.70;;;7.97;;
55465;SDS011;41329;41.594;23.810;2023-02-24T16:26:32;10.57;;;7.90;;
55465;SDS011;41329;41.594;23.810;2023-02-24T16:29:02;8.43;;;7.13;;
55465;SDS011;41329;41.594;23.810;2023-02-24T16:31:27;7.60;;;7.00;;
55465;SDS011;41329;41.594;23.810;2023-02-24T16:33:53;8.07;;;7.53;;
55465;SDS011;41329;41.594;23.810;2023-02-24T16:36:19;8.70;;;7.53;;
55465;SDS011;41329;41.594;23.810;2023-02-24T16:38:46;10.15;;;8.48;;
55465;SDS011;41329;41.594;23.810;2023-02-24T16:41:14;8.70;;;8.00;;
55465;SDS011;41329;41.594;23.810;2023-02-24T16:43:40;11.18;;;8.02;;
55465;SDS011;41329;41.594;23.810;2023-02-24T16:46:09;23.05;;;18.63;;
55465;SDS011;41329;41.594;23.810;2023-02-24T16:48:38;20.25;;;17.17;;
55465;SDS011;41329;41.594;23.810;2023-02-24T16:51:05;9.95;;;9.00;;
55465;SDS011;41329;41.594;23.810;2023-02-24T16:53:32;11.48;;;9.02;;
55465;SDS011;41329;41.594;23.810;2023-02-24T16:55:58;9.65;;;8.95;;
55465;SDS011;41329;41.594;23.810;2023-02-24T16:58:23;11.07;;;9.87;;
55465;SDS011;41329;41.594;23.810;2023-02-24T17:00:49;9.83;;;8.87;;
55465;SDS011;41329;41.594;23.810;2023-02-24T17:03:21;11.83;;;8.10;;
55465;SDS011;41329;41.594;23.810;2023-02-24T17:05:49;15.80;;;13.13;;
55465;SDS011;41329;41.594;23.810;2023-02-24T17:08:15;9.67;;;8.77;;
55465;SDS011;41329;41.594;23.810;2023-02-24T17:10:41;10.33;;;9.23;;
55465;SDS011;41329;41.594;23.810;2023-02-24T17:13:11;9.73;;;8.83;;
55465;SDS011;41329;41.594;23.810;2023-02-24T17:15:38;11.43;;;9.43;;